sensor_id;sensor_type;location;lat;lon;timestamp;temperature;humidity
17918;DHT22;9084;50.956;3.106;2022-12-10T00:01:15;3.10;99.90
17918;DHT22;9084;50.956;3.106;2022-12-10T00:03:41;3.20;99.90
17918;DHT22;9084;50.956;3.106;2022-12-10T00:06:18;3.10;99.90
17918;DHT22;9084;50.956;3.106;2022-12-10T00:08:44;3.10;99.90
17918;DHT22;9084;50.956;3.106;2022-12-10T00:11:12;3.10;99.90
17918;DHT22;9084;50.956;3.106;2022-12-10T00:13:39;3.10;99.90
17918;DHT22;9084;50.956;3.106;2022-12-10T00:16:07;3.10;99.90
17918;DHT22;9084;50.956;3.106;2022-12-10T00:18:36;3.10;99.90
17918;DHT22;9084;50.956;3.106;2022-12-10T00:21:15;3.10;99.90
17918;DHT22;9084;50.956;3.106;2022-12-10T00:23:42;3.20;99.90
17918;DHT22;9084;50.956;3.106;2022-12-10T00:26:11;3.10;99.90
17918;DHT22;9084;50.956;3.106;2022-12-10T00:28:38;3.10;99.90
17918;DHT22;9084;50.956;3.106;2022-12-10T00:31:16;3.10;99.90
17918;DHT22;9084;50.956;3.106;2022-12-10T00:33:45;3.10;99.90
17918;DHT22;9084;50.956;3.106;2022-12-10T00:36:26;3.10;99.90
17918;DHT22;9084;50.956;3.106;2022-12-10T00:38:55;3.00;99.90
17918;DHT22;9084;50.956;3.106;2022-12-10T00:41:23;3.00;99.90
17918;DHT22;9084;50.956;3.106;2022-12-10T00:43:49;3.00;99.90
17918;DHT22;9084;50.956;3.106;2022-12-10T00:46:17;3.00;99.90
17918;DHT22;9084;50.956;3.106;2022-12-10T00:48:44;3.00;99.90
17918;DHT22;9084;50.956;3.106;2022-12-10T00:51:16;3.00;99.90
17918;DHT22;9084;50.956;3.106;2022-12-10T00:53:43;2.90;99.90
17918;DHT22;9084;50.956;3.106;2022-12-10T00:56:11;2.70;99.90
17918;DHT22;9084;50.956;3.106;2022-12-10T00:58:38;2.80;99.90
17918;DHT22;9084;50.956;3.106;2022-12-10T01:01:12;2.80;99.90
17918;DHT22;9084;50.956;3.106;2022-12-10T01:03:39;2.90;99.90
17918;DHT22;9084;50.956;3.106;2022-12-10T01:06:11;2.90;99.90
17918;DHT22;9084;50.956;3.106;2022-12-10T01:08:38;2.90;99.90
17918;DHT22;9084;50.956;3.106;2022-12-10T01:11:04;2.90;99.90
17918;DHT22;9084;50.956;3.106;2022-12-10T01:13:31;3.00;99.90
17918;DHT22;9084;50.956;3.106;2022-12-10T01:16:00;3.00;99.90
17918;DHT22;9084;50.956;3.106;2022-12-10T01:18:27;2.90;99.90
17918;DHT22;9084;50.956;3.106;2022-12-10T01:20:52;2.90;99.90
17918;DHT22;9084;50.956;3.106;2022-12-10T01:23:18;2.90;99.90
17918;DHT22;9084;50.956;3.106;2022-12-10T01:25:47;2.90;99.90
17918;DHT22;9084;50.956;3.106;2022-12-10T01:28:13;2.90;99.90
17918;DHT22;9084;50.956;3.106;2022-12-10T01:30:40;3.00;99.90
17918;DHT22;9084;50.956;3.106;2022-12-10T01:33:07;3.00;99.90
17918;DHT22;9084;50.956;3.106;2022-12-10T01:35:36;3.00;99.90
17918;DHT22;9084;50.956;3.106;2022-12-10T01:38:02;3.00;99.90
17918;DHT22;9084;50.956;3.106;2022-12-10T01:40:29;3.00;99.90
17918;DHT22;9084;50.956;3.106;2022-12-10T01:42:57;3.00;99.90
17918;DHT22;9084;50.956;3.106;2022-12-10T01:45:24;3.00;99.90
17918;DHT22;9084;50.956;3.106;2022-12-10T01:47:54;2.90;99.90
17918;DHT22;9084;50.956;3.106;2022-12-10T01:50:20;2.90;99.90
17918;DHT22;9084;50.956;3.106;2022-12-10T01:52:48;3.00;99.90
17918;DHT22;9084;50.956;3.106;2022-12-10T01:55:41;3.00;99.90
17918;DHT22;9084;50.956;3.106;2022-12-10T01:58:08;3.00;99.90
17918;DHT22;9084;50.956;3.106;2022-12-10T02:00:38;3.00;99.90
17918;DHT22;9084;50.956;3.106;2022-12-10T02:03:13;3.00;99.90
17918;DHT22;9084;50.956;3.106;2022-12-10T02:05:44;3.00;99.90
17918;DHT22;9084;50.956;3.106;2022-12-10T02:08:31;3.00;99.90
17918;DHT22;9084;50.956;3.106;2022-12-10T02:11:22;2.90;99.90
17918;DHT22;9084;50.956;3.106;2022-12-10T02:14:15;3.00;99.90
17918;DHT22;9084;50.956;3.106;2022-12-10T02:16:50;2.90;99.90
17918;DHT22;9084;50.956;3.106;2022-12-10T02:22:26;2.90;99.90
17918;DHT22;9084;50.956;3.106;2022-12-10T02:24:55;2.80;99.90
17918;DHT22;9084;50.956;3.106;2022-12-10T02:27:32;2.90;99.90
17918;DHT22;9084;50.956;3.106;2022-12-10T02:30:00;2.90;99.90
17918;DHT22;9084;50.956;3.106;2022-12-10T02:32:31;2.90;99.90
17918;DHT22;9084;50.956;3.106;2022-12-10T02:35:00;2.90;99.90
17918;DHT22;9084;50.956;3.106;2022-12-10T02:37:31;2.90;99.90
17918;DHT22;9084;50.956;3.106;2022-12-10T02:40:03;2.90;99.90
17918;DHT22;9084;50.956;3.106;2022-12-10T02:42:32;2.80;99.90
17918;DHT22;9084;50.956;3.106;2022-12-10T02:45:02;2.80;99.90
17918;DHT22;9084;50.956;3.106;2022-12-10T02:47:28;2.80;99.90
17918;DHT22;9084;50.956;3.106;2022-12-10T02:49:56;2.80;99.90
17918;DHT22;9084;50.956;3.106;2022-12-10T02:52:23;2.80;99.90
17918;DHT22;9084;50.956;3.106;2022-12-10T02:54:50;2.80;99.90
17918;DHT22;9084;50.956;3.106;2022-12-10T02:57:44;2.80;99.90
17918;DHT22;9084;50.956;3.106;2022-12-10T03:00:21;2.80;99.90
17918;DHT22;9084;50.956;3.106;2022-12-10T03:03:14;2.80;99.90
17918;DHT22;9084;50.956;3.106;2022-12-10T03:05:55;2.80;99.90
17918;DHT22;9084;50.956;3.106;2022-12-10T03:08:47;2.70;99.90
17918;DHT22;9084;50.956;3.106;2022-12-10T03:11:21;2.70;99.90
17918;DHT22;9084;50.956;3.106;2022-12-10T03:14:11;2.80;99.90
17918;DHT22;9084;50.956;3.106;2022-12-10T03:16:54;2.70;99.90
17918;DHT22;9084;50.956;3.106;2022-12-10T03:19:24;2.70;99.90
17918;DHT22;9084;50.956;3.106;2022-12-10T03:21:53;2.70;99.90
17918;DHT22;9084;50.956;3.106;2022-12-10T03:24:20;2.70;99.90
17918;DHT22;9084;50.956;3.106;2022-12-10T03:26:48;2.70;99.90
17918;DHT22;9084;50.956;3.106;2022-12-10T03:29:22;2.70;99.90
17918;DHT22;9084;50.956;3.106;2022-12-10T03:31:53;2.70;99.90
17918;DHT22;9084;50.956;3.106;2022-12-10T03:34:20;2.70;99.90
17918;DHT22;9084;50.956;3.106;2022-12-10T03:36:47;2.70;99.90
17918;DHT22;9084;50.956;3.106;2022-12-10T03:39:13;2.60;99.90
17918;DHT22;9084;50.956;3.106;2022-12-10T03:41:41;2.60;99.90
17918;DHT22;9084;50.956;3.106;2022-12-10T03:44:06;2.60;99.90
17918;DHT22;9084;50.956;3.106;2022-12-10T03:46:32;2.60;99.90
17918;DHT22;9084;50.956;3.106;2022-12-10T03:49:01;2.60;99.90
17918;DHT22;9084;50.956;3.106;2022-12-10T03:51:28;2.50;99.90
17918;DHT22;9084;50.956;3.106;2022-12-10T03:53:54;2.50;99.90
17918;DHT22;9084;50.956;3.106;2022-12-10T03:56:22;2.50;99.90
17918;DHT22;9084;50.956;3.106;2022-12-10T03:58:48;2.50;99.90
17918;DHT22;9084;50.956;3.106;2022-12-10T04:01:14;2.50;99.90
17918;DHT22;9084;50.956;3.106;2022-12-10T04:03:43;2.50;99.90
17918;DHT22;9084;50.956;3.106;2022-12-10T04:06:16;2.50;99.90
17918;DHT22;9084;50.956;3.106;2022-12-10T04:08:43;2.50;99.90
17918;DHT22;9084;50.956;3.106;2022-12-10T04:11:11;2.50;99.90
17918;DHT22;9084;50.956;3.106;2022-12-10T04:13:38;2.50;99.90
17918;DHT22;9084;50.956;3.106;2022-12-10T04:16:23;2.50;99.90
17918;DHT22;9084;50.956;3.106;2022-12-10T04:18:52;2.40;99.90
17918;DHT22;9084;50.956;3.106;2022-12-10T04:21:21;2.40;99.90
17918;DHT22;9084;50.956;3.106;2022-12-10T04:24:06;2.40;99.90
17918;DHT22;9084;50.956;3.106;2022-12-10T04:26:51;2.40;99.90
17918;DHT22;9084;50.956;3.106;2022-12-10T04:29:28;2.40;99.90
17918;DHT22;9084;50.956;3.106;2022-12-10T04:31:55;2.30;99.90
17918;DHT22;9084;50.956;3.106;2022-12-10T04:34:22;2.30;99.90
17918;DHT22;9084;50.956;3.106;2022-12-10T04:36:52;2.30;99.90
17918;DHT22;9084;50.956;3.106;2022-12-10T04:39:18;2.30;99.90
17918;DHT22;9084;50.956;3.106;2022-12-10T04:41:47;2.30;99.90
17918;DHT22;9084;50.956;3.106;2022-12-10T04:44:17;2.20;99.90
17918;DHT22;9084;50.956;3.106;2022-12-10T04:46:44;2.20;99.90
17918;DHT22;9084;50.956;3.106;2022-12-10T04:49:13;2.20;99.90
17918;DHT22;9084;50.956;3.106;2022-12-10T04:51:42;2.20;99.90
17918;DHT22;9084;50.956;3.106;2022-12-10T04:54:09;2.10;99.90
17918;DHT22;9084;50.956;3.106;2022-12-10T04:56:36;2.20;99.90
17918;DHT22;9084;50.956;3.106;2022-12-10T04:59:05;2.10;99.90
17918;DHT22;9084;50.956;3.106;2022-12-10T05:01:33;2.20;99.90
17918;DHT22;9084;50.956;3.106;2022-12-10T05:04:01;2.20;99.90
17918;DHT22;9084;50.956;3.106;2022-12-10T05:06:27;2.10;99.90
17918;DHT22;9084;50.956;3.106;2022-12-10T05:08:55;2.10;99.90
17918;DHT22;9084;50.956;3.106;2022-12-10T05:11:23;2.10;99.90
17918;DHT22;9084;50.956;3.106;2022-12-10T05:13:49;2.10;99.90
17918;DHT22;9084;50.956;3.106;2022-12-10T05:16:17;2.10;99.90
17918;DHT22;9084;50.956;3.106;2022-12-10T05:18:43;2.00;99.90
17918;DHT22;9084;50.956;3.106;2022-12-10T05:21:15;2.00;99.90
17918;DHT22;9084;50.956;3.106;2022-12-10T05:23:44;1.90;99.90
17918;DHT22;9084;50.956;3.106;2022-12-10T05:26:19;1.90;99.90
17918;DHT22;9084;50.956;3.106;2022-12-10T05:28:52;1.90;99.90
17918;DHT22;9084;50.956;3.106;2022-12-10T05:31:23;1.90;99.90
17918;DHT22;9084;50.956;3.106;2022-12-10T05:33:49;1.90;99.90
17918;DHT22;9084;50.956;3.106;2022-12-10T05:36:18;1.90;99.90
17918;DHT22;9084;50.956;3.106;2022-12-10T05:38:45;1.90;99.90
17918;DHT22;9084;50.956;3.106;2022-12-10T05:41:20;1.90;99.90
17918;DHT22;9084;50.956;3.106;2022-12-10T05:43:46;1.90;99.90
17918;DHT22;9084;50.956;3.106;2022-12-10T05:46:21;2.00;99.90
17918;DHT22;9084;50.956;3.106;2022-12-10T05:48:50;2.00;99.90
17918;DHT22;9084;50.956;3.106;2022-12-10T05:51:21;1.80;99.90
17918;DHT22;9084;50.956;3.106;2022-12-10T05:53:48;1.90;99.90
17918;DHT22;9084;50.956;3.106;2022-12-10T05:56:17;1.90;99.90
17918;DHT22;9084;50.956;3.106;2022-12-10T05:58:49;1.80;99.90
17918;DHT22;9084;50.956;3.106;2022-12-10T06:01:20;1.90;99.90
17918;DHT22;9084;50.956;3.106;2022-12-10T06:03:46;1.80;99.90
17918;DHT22;9084;50.956;3.106;2022-12-10T06:06:13;1.80;99.90
17918;DHT22;9084;50.956;3.106;2022-12-10T06:08:41;1.80;99.90
17918;DHT22;9084;50.956;3.106;2022-12-10T06:11:11;1.80;99.90
17918;DHT22;9084;50.956;3.106;2022-12-10T06:13:37;1.80;99.90
17918;DHT22;9084;50.956;3.106;2022-12-10T06:16:07;1.80;99.90
17918;DHT22;9084;50.956;3.106;2022-12-10T06:18:34;1.80;99.90
17918;DHT22;9084;50.956;3.106;2022-12-10T06:21:05;1.80;99.90
17918;DHT22;9084;50.956;3.106;2022-12-10T06:23:34;1.80;99.90
17918;DHT22;9084;50.956;3.106;2022-12-10T06:26:11;1.80;99.90
17918;DHT22;9084;50.956;3.106;2022-12-10T06:28:38;1.80;99.90
17918;DHT22;9084;50.956;3.106;2022-12-10T06:31:04;1.80;99.90
17918;DHT22;9084;50.956;3.106;2022-12-10T06:33:30;1.70;99.90
17918;DHT22;9084;50.956;3.106;2022-12-10T06:35:57;1.70;99.90
17918;DHT22;9084;50.956;3.106;2022-12-10T06:38:25;1.70;99.90
17918;DHT22;9084;50.956;3.106;2022-12-10T06:40:51;1.70;99.90
17918;DHT22;9084;50.956;3.106;2022-12-10T06:43:18;1.70;99.90
17918;DHT22;9084;50.956;3.106;2022-12-10T06:45:43;1.70;99.90
17918;DHT22;9084;50.956;3.106;2022-12-10T06:48:09;1.70;99.90
17918;DHT22;9084;50.956;3.106;2022-12-10T06:50:35;1.60;99.90
17918;DHT22;9084;50.956;3.106;2022-12-10T06:53:01;1.70;99.90
17918;DHT22;9084;50.956;3.106;2022-12-10T06:55:27;1.60;99.90
17918;DHT22;9084;50.956;3.106;2022-12-10T06:57:56;1.60;99.90
17918;DHT22;9084;50.956;3.106;2022-12-10T07:00:23;1.60;99.90
17918;DHT22;9084;50.956;3.106;2022-12-10T07:02:49;1.60;99.90
17918;DHT22;9084;50.956;3.106;2022-12-10T07:05:15;1.60;99.90
17918;DHT22;9084;50.956;3.106;2022-12-10T07:07:41;1.60;99.90
17918;DHT22;9084;50.956;3.106;2022-12-10T07:10:08;1.60;99.90
17918;DHT22;9084;50.956;3.106;2022-12-10T07:12:34;1.60;99.90
17918;DHT22;9084;50.956;3.106;2022-12-10T07:15:02;1.60;99.90
17918;DHT22;9084;50.956;3.106;2022-12-10T07:17:28;1.60;99.90
17918;DHT22;9084;50.956;3.106;2022-12-10T07:19:54;1.60;99.90
17918;DHT22;9084;50.956;3.106;2022-12-10T07:22:20;1.60;99.90
17918;DHT22;9084;50.956;3.106;2022-12-10T07:24:48;1.60;99.90
17918;DHT22;9084;50.956;3.106;2022-12-10T07:27:14;1.70;99.90
17918;DHT22;9084;50.956;3.106;2022-12-10T07:29:44;1.70;99.90
17918;DHT22;9084;50.956;3.106;2022-12-10T07:32:12;1.70;99.90
17918;DHT22;9084;50.956;3.106;2022-12-10T07:34:41;1.70;99.90
17918;DHT22;9084;50.956;3.106;2022-12-10T07:37:07;1.70;99.90
17918;DHT22;9084;50.956;3.106;2022-12-10T07:39:36;1.70;99.90
17918;DHT22;9084;50.956;3.106;2022-12-10T07:42:02;1.80;99.90
17918;DHT22;9084;50.956;3.106;2022-12-10T07:44:30;1.70;99.90
17918;DHT22;9084;50.956;3.106;2022-12-10T07:46:59;1.80;99.90
17918;DHT22;9084;50.956;3.106;2022-12-10T07:49:25;1.70;99.90
17918;DHT22;9084;50.956;3.106;2022-12-10T07:51:51;1.60;99.90
17918;DHT22;9084;50.956;3.106;2022-12-10T07:54:18;1.80;99.90
17918;DHT22;9084;50.956;3.106;2022-12-10T07:56:45;1.80;99.90
17918;DHT22;9084;50.956;3.106;2022-12-10T07:59:10;2.00;99.90
17918;DHT22;9084;50.956;3.106;2022-12-10T08:01:37;1.80;99.90
17918;DHT22;9084;50.956;3.106;2022-12-10T08:04:03;1.90;99.90
17918;DHT22;9084;50.956;3.106;2022-12-10T08:06:29;1.90;99.90
17918;DHT22;9084;50.956;3.106;2022-12-10T08:08:58;1.90;99.90
17918;DHT22;9084;50.956;3.106;2022-12-10T08:11:27;1.90;99.90
17918;DHT22;9084;50.956;3.106;2022-12-10T08:13:54;1.90;99.90
17918;DHT22;9084;50.956;3.106;2022-12-10T08:16:21;1.90;99.90
17918;DHT22;9084;50.956;3.106;2022-12-10T08:18:52;1.80;99.90
17918;DHT22;9084;50.956;3.106;2022-12-10T08:21:22;1.80;99.90
17918;DHT22;9084;50.956;3.106;2022-12-10T08:23:50;1.80;99.90
17918;DHT22;9084;50.956;3.106;2022-12-10T08:26:21;1.70;99.90
17918;DHT22;9084;50.956;3.106;2022-12-10T08:28:48;1.70;99.90
17918;DHT22;9084;50.956;3.106;2022-12-10T08:31:18;1.70;99.90
17918;DHT22;9084;50.956;3.106;2022-12-10T08:33:49;1.70;99.90
17918;DHT22;9084;50.956;3.106;2022-12-10T08:36:18;1.70;99.90
17918;DHT22;9084;50.956;3.106;2022-12-10T08:38:46;1.70;99.90
17918;DHT22;9084;50.956;3.106;2022-12-10T08:41:19;1.70;99.90
17918;DHT22;9084;50.956;3.106;2022-12-10T08:43:50;1.90;99.90
17918;DHT22;9084;50.956;3.106;2022-12-10T08:46:19;2.00;99.90
17918;DHT22;9084;50.956;3.106;2022-12-10T08:48:50;1.90;99.90
17918;DHT22;9084;50.956;3.106;2022-12-10T08:51:20;1.90;99.90
17918;DHT22;9084;50.956;3.106;2022-12-10T08:53:47;1.90;99.90
17918;DHT22;9084;50.956;3.106;2022-12-10T08:56:13;2.00;99.90
17918;DHT22;9084;50.956;3.106;2022-12-10T08:58:42;2.00;99.90
17918;DHT22;9084;50.956;3.106;2022-12-10T09:01:09;2.10;99.90
17918;DHT22;9084;50.956;3.106;2022-12-10T09:03:36;2.10;99.90
17918;DHT22;9084;50.956;3.106;2022-12-10T09:06:09;2.10;99.90
17918;DHT22;9084;50.956;3.106;2022-12-10T09:08:38;2.10;99.90
17918;DHT22;9084;50.956;3.106;2022-12-10T09:11:09;2.10;99.90
17918;DHT22;9084;50.956;3.106;2022-12-10T09:13:35;2.10;99.90
17918;DHT22;9084;50.956;3.106;2022-12-10T09:16:02;2.10;99.90
17918;DHT22;9084;50.956;3.106;2022-12-10T09:18:27;2.20;99.90
17918;DHT22;9084;50.956;3.106;2022-12-10T09:20:53;2.20;99.90
17918;DHT22;9084;50.956;3.106;2022-12-10T09:23:19;2.20;99.90
17918;DHT22;9084;50.956;3.106;2022-12-10T09:25:45;2.20;99.90
17918;DHT22;9084;50.956;3.106;2022-12-10T09:28:13;2.30;99.90
17918;DHT22;9084;50.956;3.106;2022-12-10T09:30:39;2.30;99.90
17918;DHT22;9084;50.956;3.106;2022-12-10T09:33:06;2.30;99.90
17918;DHT22;9084;50.956;3.106;2022-12-10T09:35:32;2.30;99.90
17918;DHT22;9084;50.956;3.106;2022-12-10T09:38:00;2.30;99.90
17918;DHT22;9084;50.956;3.106;2022-12-10T09:43:26;2.40;99.90
17918;DHT22;9084;50.956;3.106;2022-12-10T09:48:50;2.50;99.90
17918;DHT22;9084;50.956;3.106;2022-12-10T09:51:21;2.50;99.90
17918;DHT22;9084;50.956;3.106;2022-12-10T09:53:51;2.60;99.90
17918;DHT22;9084;50.956;3.106;2022-12-10T09:56:30;2.70;99.90
17918;DHT22;9084;50.956;3.106;2022-12-10T09:59:00;2.70;99.90
17918;DHT22;9084;50.956;3.106;2022-12-10T10:01:30;2.70;99.90
17918;DHT22;9084;50.956;3.106;2022-12-10T10:03:57;2.80;99.90
17918;DHT22;9084;50.956;3.106;2022-12-10T10:06:24;2.80;99.90
17918;DHT22;9084;50.956;3.106;2022-12-10T10:08:54;2.80;99.90
17918;DHT22;9084;50.956;3.106;2022-12-10T10:11:28;2.80;99.90
17918;DHT22;9084;50.956;3.106;2022-12-10T10:14:11;2.80;99.90
17918;DHT22;9084;50.956;3.106;2022-12-10T10:16:43;2.80;99.90
17918;DHT22;9084;50.956;3.106;2022-12-10T10:19:28;2.80;99.90
17918;DHT22;9084;50.956;3.106;2022-12-10T10:21:55;2.80;99.90
17918;DHT22;9084;50.956;3.106;2022-12-10T10:24:24;2.80;99.90
17918;DHT22;9084;50.956;3.106;2022-12-10T10:26:53;2.90;99.90
17918;DHT22;9084;50.956;3.106;2022-12-10T10:29:22;2.90;99.90
17918;DHT22;9084;50.956;3.106;2022-12-10T10:32:23;2.90;99.90
17918;DHT22;9084;50.956;3.106;2022-12-10T10:34:58;2.90;99.90
17918;DHT22;9084;50.956;3.106;2022-12-10T10:37:27;2.80;99.90
17918;DHT22;9084;50.956;3.106;2022-12-10T10:39:57;2.80;99.90
17918;DHT22;9084;50.956;3.106;2022-12-10T10:42:41;2.70;99.90
17918;DHT22;9084;50.956;3.106;2022-12-10T10:48:18;2.70;99.90
17918;DHT22;9084;50.956;3.106;2022-12-10T10:50:50;2.70;99.90
17918;DHT22;9084;50.956;3.106;2022-12-10T10:53:32;2.70;99.90
17918;DHT22;9084;50.956;3.106;2022-12-10T10:56:22;2.70;99.90
17918;DHT22;9084;50.956;3.106;2022-12-10T10:59:07;2.70;99.90
17918;DHT22;9084;50.956;3.106;2022-12-10T11:04:18;2.70;99.90
17918;DHT22;9084;50.956;3.106;2022-12-10T11:06:50;2.70;99.90
17918;DHT22;9084;50.956;3.106;2022-12-10T11:09:25;2.70;99.90
17918;DHT22;9084;50.956;3.106;2022-12-10T11:11:59;2.70;99.90
17918;DHT22;9084;50.956;3.106;2022-12-10T11:20:35;2.60;99.90
17918;DHT22;9084;50.956;3.106;2022-12-10T11:22:59;2.60;99.90
17918;DHT22;9084;50.956;3.106;2022-12-10T11:34:35;2.70;99.90
17918;DHT22;9084;50.956;3.106;2022-12-10T11:51:11;2.90;99.90
17918;DHT22;9084;50.956;3.106;2022-12-10T11:56:48;2.90;99.90
17918;DHT22;9084;50.956;3.106;2022-12-10T12:11:08;3.00;99.90
17918;DHT22;9084;50.956;3.106;2022-12-10T12:13:59;3.00;99.90
17918;DHT22;9084;50.956;3.106;2022-12-10T12:19:34;3.10;99.90
17918;DHT22;9084;50.956;3.106;2022-12-10T12:22:16;3.10;99.90
17918;DHT22;9084;50.956;3.106;2022-12-10T12:24:47;3.20;99.90
17918;DHT22;9084;50.956;3.106;2022-12-10T12:27:36;3.20;99.90
17918;DHT22;9084;50.956;3.106;2022-12-10T12:30:22;3.20;99.90
17918;DHT22;9084;50.956;3.106;2022-12-10T12:33:02;3.30;99.90
17918;DHT22;9084;50.956;3.106;2022-12-10T12:38:03;3.30;99.90
17918;DHT22;9084;50.956;3.106;2022-12-10T12:40:39;3.30;99.90
17918;DHT22;9084;50.956;3.106;2022-12-10T12:43:12;3.30;99.90
17918;DHT22;9084;50.956;3.106;2022-12-10T12:45:41;3.30;99.90
17918;DHT22;9084;50.956;3.106;2022-12-10T12:50:53;3.40;99.90
17918;DHT22;9084;50.956;3.106;2022-12-10T12:53:21;3.30;99.90
17918;DHT22;9084;50.956;3.106;2022-12-10T13:04:14;3.40;99.90
17918;DHT22;9084;50.956;3.106;2022-12-10T13:07:35;3.40;99.90
17918;DHT22;9084;50.956;3.106;2022-12-10T13:12:49;3.50;99.90
17918;DHT22;9084;50.956;3.106;2022-12-10T13:15:37;3.50;99.90
17918;DHT22;9084;50.956;3.106;2022-12-10T13:18:36;3.50;99.90
17918;DHT22;9084;50.956;3.106;2022-12-10T13:24:05;3.60;99.90
17918;DHT22;9084;50.956;3.106;2022-12-10T13:26:31;3.60;99.90
17918;DHT22;9084;50.956;3.106;2022-12-10T13:29:27;3.60;99.90
17918;DHT22;9084;50.956;3.106;2022-12-10T13:32:04;3.60;99.90
17918;DHT22;9084;50.956;3.106;2022-12-10T13:34:38;3.70;99.90
17918;DHT22;9084;50.956;3.106;2022-12-10T13:37:18;3.70;99.90
17918;DHT22;9084;50.956;3.106;2022-12-10T13:42:36;3.80;99.90
17918;DHT22;9084;50.956;3.106;2022-12-10T13:51:09;3.80;99.90
17918;DHT22;9084;50.956;3.106;2022-12-10T13:53:44;3.90;99.90
17918;DHT22;9084;50.956;3.106;2022-12-10T13:56:32;3.90;99.90
17918;DHT22;9084;50.956;3.106;2022-12-10T13:59:43;3.90;99.90
17918;DHT22;9084;50.956;3.106;2022-12-10T14:07:52;3.90;99.90
17918;DHT22;9084;50.956;3.106;2022-12-10T14:10:24;3.80;99.90
17918;DHT22;9084;50.956;3.106;2022-12-10T14:12:53;3.90;99.90
17918;DHT22;9084;50.956;3.106;2022-12-10T14:15:22;3.90;99.90
17918;DHT22;9084;50.956;3.106;2022-12-10T14:17:51;3.90;99.90
17918;DHT22;9084;50.956;3.106;2022-12-10T14:20:24;3.80;99.90
17918;DHT22;9084;50.956;3.106;2022-12-10T14:22:53;3.80;99.90
17918;DHT22;9084;50.956;3.106;2022-12-10T14:25:44;3.80;99.90
17918;DHT22;9084;50.956;3.106;2022-12-10T14:28:16;3.80;99.90
17918;DHT22;9084;50.956;3.106;2022-12-10T14:30:48;3.80;99.90
17918;DHT22;9084;50.956;3.106;2022-12-10T14:33:24;3.80;99.90
17918;DHT22;9084;50.956;3.106;2022-12-10T14:35:51;3.80;99.90
17918;DHT22;9084;50.956;3.106;2022-12-10T14:38:28;3.80;99.90
17918;DHT22;9084;50.956;3.106;2022-12-10T14:40:56;3.80;99.90
17918;DHT22;9084;50.956;3.106;2022-12-10T14:43:24;3.70;99.90
17918;DHT22;9084;50.956;3.106;2022-12-10T14:45:58;3.70;99.90
17918;DHT22;9084;50.956;3.106;2022-12-10T14:48:25;3.70;99.90
17918;DHT22;9084;50.956;3.106;2022-12-10T14:50:58;3.70;99.90
17918;DHT22;9084;50.956;3.106;2022-12-10T14:53:28;3.70;99.90
17918;DHT22;9084;50.956;3.106;2022-12-10T14:56:05;3.90;99.90
17918;DHT22;9084;50.956;3.106;2022-12-10T15:00:58;3.70;99.90
17918;DHT22;9084;50.956;3.106;2022-12-10T15:03:27;3.70;99.90
17918;DHT22;9084;50.956;3.106;2022-12-10T15:05:56;3.70;99.90
17918;DHT22;9084;50.956;3.106;2022-12-10T15:08:25;3.60;99.90
17918;DHT22;9084;50.956;3.106;2022-12-10T15:10:54;3.60;99.90
17918;DHT22;9084;50.956;3.106;2022-12-10T15:13:22;3.50;99.90
17918;DHT22;9084;50.956;3.106;2022-12-10T15:15:52;3.40;99.90
17918;DHT22;9084;50.956;3.106;2022-12-10T15:18:25;3.40;99.90
17918;DHT22;9084;50.956;3.106;2022-12-10T15:20:54;3.40;99.90
17918;DHT22;9084;50.956;3.106;2022-12-10T15:23:35;3.30;99.90
17918;DHT22;9084;50.956;3.106;2022-12-10T15:26:22;3.30;99.90
17918;DHT22;9084;50.956;3.106;2022-12-10T15:29:05;3.20;99.90
17918;DHT22;9084;50.956;3.106;2022-12-10T15:31:39;3.10;99.90
17918;DHT22;9084;50.956;3.106;2022-12-10T15:34:12;3.10;99.90
17918;DHT22;9084;50.956;3.106;2022-12-10T15:47:11;3.00;99.90
17918;DHT22;9084;50.956;3.106;2022-12-10T15:49:41;2.90;99.90
17918;DHT22;9084;50.956;3.106;2022-12-10T15:52:21;2.90;99.90
17918;DHT22;9084;50.956;3.106;2022-12-10T15:54:51;2.90;99.90
17918;DHT22;9084;50.956;3.106;2022-12-10T15:57:26;2.90;99.90
17918;DHT22;9084;50.956;3.106;2022-12-10T15:59:58;2.80;99.90
17918;DHT22;9084;50.956;3.106;2022-12-10T16:04:50;2.80;99.90
17918;DHT22;9084;50.956;3.106;2022-12-10T16:07:16;2.80;99.90
17918;DHT22;9084;50.956;3.106;2022-12-10T16:09:43;2.80;99.90
17918;DHT22;9084;50.956;3.106;2022-12-10T16:12:16;2.80;99.90
17918;DHT22;9084;50.956;3.106;2022-12-10T16:14:53;2.80;99.90
17918;DHT22;9084;50.956;3.106;2022-12-10T16:17:26;2.80;99.90
17918;DHT22;9084;50.956;3.106;2022-12-10T16:20:00;2.70;99.90
17918;DHT22;9084;50.956;3.106;2022-12-10T16:22:34;2.70;99.90
17918;DHT22;9084;50.956;3.106;2022-12-10T16:25:03;2.70;99.90
17918;DHT22;9084;50.956;3.106;2022-12-10T16:27:31;2.70;99.90
17918;DHT22;9084;50.956;3.106;2022-12-10T16:29:58;2.60;99.90
17918;DHT22;9084;50.956;3.106;2022-12-10T16:32:24;2.60;99.90
17918;DHT22;9084;50.956;3.106;2022-12-10T16:34:54;2.60;99.90
17918;DHT22;9084;50.956;3.106;2022-12-10T16:37:21;2.60;99.90
17918;DHT22;9084;50.956;3.106;2022-12-10T16:39:46;2.50;99.90
17918;DHT22;9084;50.956;3.106;2022-12-10T16:42:15;2.50;99.90
17918;DHT22;9084;50.956;3.106;2022-12-10T16:44:43;2.40;99.90
17918;DHT22;9084;50.956;3.106;2022-12-10T16:47:12;2.40;99.90
17918;DHT22;9084;50.956;3.106;2022-12-10T16:49:40;2.40;99.90
17918;DHT22;9084;50.956;3.106;2022-12-10T16:52:06;2.30;99.90
17918;DHT22;9084;50.956;3.106;2022-12-10T16:54:32;2.30;99.90
17918;DHT22;9084;50.956;3.106;2022-12-10T16:56:58;2.30;99.90
17918;DHT22;9084;50.956;3.106;2022-12-10T16:59:23;2.30;99.90
17918;DHT22;9084;50.956;3.106;2022-12-10T17:01:51;2.20;99.90
17918;DHT22;9084;50.956;3.106;2022-12-10T17:04:18;2.20;99.90
17918;DHT22;9084;50.956;3.106;2022-12-10T17:06:46;2.20;99.90
17918;DHT22;9084;50.956;3.106;2022-12-10T17:09:14;2.20;99.90
17918;DHT22;9084;50.956;3.106;2022-12-10T17:11:41;2.00;99.90
17918;DHT22;9084;50.956;3.106;2022-12-10T17:14:32;2.00;99.90
17918;DHT22;9084;50.956;3.106;2022-12-10T17:17:00;2.10;99.90
17918;DHT22;9084;50.956;3.106;2022-12-10T17:19:34;2.00;99.90
17918;DHT22;9084;50.956;3.106;2022-12-10T17:22:01;2.00;99.90
17918;DHT22;9084;50.956;3.106;2022-12-10T17:24:28;2.00;99.90
17918;DHT22;9084;50.956;3.106;2022-12-10T17:29:59;1.90;99.90
17918;DHT22;9084;50.956;3.106;2022-12-10T17:32:25;1.90;99.90
17918;DHT22;9084;50.956;3.106;2022-12-10T17:34:51;1.90;99.90
17918;DHT22;9084;50.956;3.106;2022-12-10T17:37:19;1.90;99.90
17918;DHT22;9084;50.956;3.106;2022-12-10T17:39:45;1.80;99.90
17918;DHT22;9084;50.956;3.106;2022-12-10T17:42:11;1.90;99.90
17918;DHT22;9084;50.956;3.106;2022-12-10T17:44:37;1.70;99.90
17918;DHT22;9084;50.956;3.106;2022-12-10T17:47:23;1.80;99.90
17918;DHT22;9084;50.956;3.106;2022-12-10T17:49:50;1.80;99.90
17918;DHT22;9084;50.956;3.106;2022-12-10T17:52:18;1.70;99.90
17918;DHT22;9084;50.956;3.106;2022-12-10T17:54:44;1.70;99.90
17918;DHT22;9084;50.956;3.106;2022-12-10T17:57:13;1.90;99.90
17918;DHT22;9084;50.956;3.106;2022-12-10T17:59:40;1.70;99.90
17918;DHT22;9084;50.956;3.106;2022-12-10T18:02:11;1.70;99.90
17918;DHT22;9084;50.956;3.106;2022-12-10T18:04:37;1.70;99.90
17918;DHT22;9084;50.956;3.106;2022-12-10T18:07:11;1.60;99.90
17918;DHT22;9084;50.956;3.106;2022-12-10T18:09:38;1.70;99.90
17918;DHT22;9084;50.956;3.106;2022-12-10T18:12:07;1.70;99.90
17918;DHT22;9084;50.956;3.106;2022-12-10T18:14:36;1.70;99.90
17918;DHT22;9084;50.956;3.106;2022-12-10T18:17:02;1.60;99.90
17918;DHT22;9084;50.956;3.106;2022-12-10T18:19:28;1.80;99.90